KEAU

Chippewa Valley Regional Airport

Eau Claire, Wisconsin, USA
METAR KEAU 122044Z 31003KT 3/4SM BR OVC005 M01/M02 A2975 RMK AO2 T10111017
Observed Flight Rules
Dec-12 @ 20:44 UTC (25 minutes ago) Instrument Flight Rules
Wind Visibility Clouds Conditions
310° at 3 knots 3/4 miles
  • Overcast at 500' AGL
  • Mist
Temperatures Readings
Current -1°C / 30°F
Dewpoint -2°C / 28°F
Humidity 93%
Altimeter 29.75" Hg
Pressure 1007 hPa
Elevation 276
METAR KEAU 122044Z 31003KT 3/4SM BR OVC005 M01/M02 A2975 RMK AO2 T10111017
Observed Flight Rules
Dec-12 @ 20:44 UTC
(25 minutes ago)
LIFR
Wind Visibility
310° at 3 knots 3/4 miles
Clouds
  • Overcast at 500' AGL
Conditions
  • Mist
Temperature Dewpoint
-1°C / 30°F -2°C / 28°F
Humidity Altimeter Pressure
93% 29.75" Hg 1007 hPa